Latest Coastal Weather Observations for Robe Airport

IDS60701

Issued at 10:35 am CDT Saturday 29 November 2014 (issued every 10 minutes, with the page automatically refreshed every 10 minutes)

About coastal observations | Map of coastal stations | Coastal observations for SA | Marine services | Other Formats
Station Details ID: 026105 Name: ROBE AIRFIELD Lat: -37.18 Lon: 139.81 Height: 3.0 m
Data from the previous 72 hours. | See also: Recent months at Robe Airport
Date/Time
CDT
Temp

°C
Wind Pressure Rain
since 9am
mm
Weather Cloud Vis
km
Sea
Height
m
Swell
Dir
 
Speed
knots
Gust
knots
hPa Trend Height
m
Period
s
Dir
29/10:30am 23.8 E 5 8 1013.0 - 0.0 - - - - - - -
29/10:00am 22.2 E 4 7 1013.5 - 0.0 - - - - - - -
29/09:30am 19.9 E 5 10 1013.9 - 0.0 - - - - - - -
29/09:00am 18.2 SE 5 8 1014.3 - 0.0 - - - - - - -
29/08:30am 16.1 SE 6 9 1014.6 - 0.0 - - - - - - -
29/08:00am 14.5 SE 8 10 1014.5 - 0.0 - - - - - - -
29/07:30am 12.6 SE 8 11 1014.5 - 0.0 - - - - - - -
29/07:00am 11.4 SE 7 10 1014.4 - 0.0 - - - - - - -
29/06:30am 10.9 SE 6 8 1014.4 - 0.0 - - - - - - -
29/06:00am 9.8 SSE 6 8 1014.4 - 0.0 - - - - - - -
29/05:30am 9.7 SE 6 8 1014.2 - 0.0 - - - - - - -
29/05:00am 10.1 SE 6 8 1014.3 - 0.0 - - - - - - -
29/04:30am 10.3 SE 7 9 1014.3 - 0.0 - - - - - - -
29/04:00am 10.1 ESE 8 10 1014.4 - 0.0 - - - - - - -
29/03:30am 10.4 ESE 8 10 1014.5 - 0.0 - - - - - - -
29/03:00am 10.8 SE 8 11 1014.7 - 0.0 - - - - - - -
29/02:30am 10.9 ESE 7 10 1015.0 - 0.0 - - - - - - -
29/02:00am 11.3 SE 8 11 1015.4 - 0.0 - - - - - - -
29/01:30am 11.7 SE 8 10 1015.8 - 0.0 - - - - - - -
29/01:00am 11.7 SE 8 11 1016.4 - 0.0 - - - - - - -
29/12:30am 12.1 SE 8 11 1016.8 - 0.0 - - - - - - -
29/12:00am 12.6 SE 8 12 1017.1 - 0.0 - - - - - - -
 
Date/Time
CDT
Temp

°C
Wind Pressure Rain
since 9am
mm
Weather Cloud Vis
km
Sea
Height
m
Swell
Dir
 
Speed
knots
Gust
knots
hPa Trend Height
m
Period
s
Dir
28/11:30pm 13.4 SE 8 10 1017.2 - 0.0 - - - - - - -
28/11:00pm 13.6 SE 8 11 1017.2 - 0.0 - - - - - - -
28/10:30pm 13.9 SE 8 12 1017.3 - 0.0 - - - - - - -
28/10:00pm 14.6 SE 9 12 1017.4 - 0.0 - - - - - - -
28/09:30pm 15.2 SE 9 12 1017.5 - 0.0 - - - - - - -
28/09:00pm 15.5 SE 7 11 1017.5 - 0.0 - - - - - - -
28/08:30pm 16.2 SSE 10 15 1017.5 - 0.0 - - - - - - -
28/08:00pm 16.7 SSE 12 17 1017.4 - 0.0 - - - - - - -
28/07:30pm 17.4 SSE 12 17 1017.5 - 0.0 - - - - - - -
28/07:00pm 17.9 SSE 11 16 1017.4 - 0.0 - - - - - - -
28/06:30pm 18.8 SSE 12 17 1017.4 - 0.0 - - - - - - -
28/06:00pm 19.3 SSE 11 18 1017.5 - 0.0 - - - - - - -
28/05:30pm 20.2 SSE 14 20 1017.4 - 0.0 - - - - - - -
28/05:00pm 19.8 S 15 20 1017.7 - 0.0 - - - - - - -
28/04:30pm 21.2 S 15 19 1017.9 - 0.0 - - - - - - -
28/04:00pm 21.6 S 15 19 1017.9 - 0.0 - - - - - - -
28/03:30pm 21.3 S 15 19 1018.1 - 0.0 - - - - - - -
28/03:00pm 22.1 S 13 17 1018.5 - 0.0 - - - - - - -
28/02:30pm 21.5 S 16 19 1018.7 - 0.0 - - - - - - -
28/02:00pm 22.1 S 15 19 1019.1 - 0.0 - - - - - - -
28/01:30pm 22.4 S 13 17 1019.2 - 0.0 - - - - - - -
28/01:00pm 22.1 SSW 12 16 1019.7 - 0.0 - - - - - - -
28/12:30pm 23.0 S 8 13 1020.2 - 0.0 - - - - - - -
28/12:00pm 22.5 SSE 8 10 1020.7 - 0.0 - - - - - - -
28/11:30am 22.1 S 8 12 1021.1 - 0.0 - - - - - - -
28/11:00am 20.9 SSE 8 13 1021.2 - 0.0 - - - - - - -
28/10:30am 20.2 ESE 8 12 1021.5 - 0.0 - - - - - - -
28/10:00am 18.5 ESE 10 13 1021.8 - 0.0 - - - - - - -
28/09:30am 17.7 ESE 11 15 1022.0 - 0.0 - - - - - - -
28/09:00am 15.8 ESE 12 18 1022.4 - 0.0 - - - - - - -
28/08:30am 14.6 ESE 12 18 1022.6 - 0.0 - - - - - - -
28/08:00am 13.3 ESE 12 18 1022.8 - 0.0 - - - - - - -
28/07:30am 12.2 ESE 12 17 1022.7 - 0.0 - - - - - - -
28/07:00am 11.6 ESE 9 13 1022.7 - 0.0 - - - - - - -
28/06:30am 10.9 ESE 9 13 1022.6 - 0.0 - - - - - - -
28/06:00am 10.6 SE 10 15 1022.5 - 0.0 - - - - - - -
28/05:30am 10.2 SSE 9 14 1022.7 - 0.0 - - - - - - -
28/05:00am 10.3 SSE 8 11 1022.2 - 0.0 - - - - - - -
28/04:30am 10.7 SE 10 15 1021.9 - 0.0 - - - - - - -
28/04:00am 10.7 SE 10 15 1021.8 - 0.0 - - - - - - -
28/03:30am 11.0 SE 10 15 1022.0 - 0.0 - - - - - - -
28/03:00am 10.9 SE 11 17 1021.9 - 0.0 - - - - - - -
28/02:30am 10.8 SE 11 16 1021.9 - 0.0 - - - - - - -
28/02:00am 10.8 SE 12 18 1021.9 - 0.0 - - - - - - -
28/01:30am 10.6 SSE 10 14 1022.0 - 0.0 - - - - - - -
28/01:00am 10.7 SE 8 12 1022.0 - 0.0 - - - - - - -
28/12:30am 11.0 SE 8 12 1022.3 - 0.0 - - - - - - -
28/12:00am 11.4 SE 8 12 1022.5 - 0.0 - - - - - - -
 
Date/Time
CDT
Temp

°C
Wind Pressure Rain
since 9am
mm
Weather Cloud Vis
km
Sea
Height
m
Swell
Dir
 
Speed
knots
Gust
knots
hPa Trend Height
m
Period
s
Dir
27/11:30pm 11.9 SE 8 13 1022.4 - 0.0 - - - - - - -
27/11:00pm 12.1 SSE 9 13 1022.6 - 0.0 - - - - - - -
27/10:30pm 12.7 SSE 12 19 1022.7 - 0.0 - - - - - - -
27/10:00pm 13.4 SE 14 22 1022.7 - 0.0 - - - - - - -
27/09:30pm 14.1 SSE 14 19 1022.9 - 0.0 - - - - - - -
27/09:00pm 14.1 SSE 10 14 1022.7 - 0.0 - - - - - - -
27/08:30pm 14.1 S 10 14 1022.7 - 0.0 - - - - - - -
27/08:00pm 14.7 S 11 17 1022.8 - 0.0 - - - - - - -
27/07:30pm 15.5 SSE 13 17 1022.6 - 0.0 - - - - - - -
27/07:00pm 15.8 SSE 16 23 1022.6 - 0.0 - - - - - - -
27/06:30pm 16.3 SSE 17 25 1022.7 - 0.0 - - - - - - -
27/06:00pm 16.9 S 18 24 1022.6 - 0.0 - - - - - - -
27/05:30pm 17.1 S 17 24 1022.8 - 0.0 - - - - - - -
27/05:00pm 17.5 S 19 25 1022.9 - 0.0 - - - - - - -
27/04:30pm 17.8 S 18 25 1023.2 - 0.0 - - - - - - -
27/04:00pm 18.3 S 18 25 1023.6 - 0.0 - - - - - - -
27/03:30pm 18.7 S 18 25 1023.7 - 0.0 - - - - - - -
27/03:00pm 18.8 S 17 22 1023.9 - 0.0 - - - - - - -
27/02:30pm 18.5 S 17 22 1024.0 - 0.0 - - - - - - -
27/02:00pm 18.7 S 17 23 1024.2 - 0.0 - - - - - - -
27/01:30pm 19.4 S 15 20 1024.4 - 0.0 - - - - - - -
27/01:00pm 19.4 S 13 20 1024.5 - 0.0 - - - - - - -
27/12:30pm 18.9 SSE 12 18 1024.8 - 0.0 - - - - - - -
27/12:00pm 18.7 SE 11 17 1025.1 - 0.0 - - - - - - -
27/11:30am 18.9 SSE 10 17 1025.5 - 0.0 - - - - - - -
27/11:00am 18.1 SSE 9 13 1025.8 - 0.0 - - - - - - -
27/10:30am 17.5 SSE 9 16 1026.1 - 0.0 - - - - - - -
27/10:00am 16.8 S 9 14 1026.3 - 0.0 - - - - - - -
27/09:30am 15.9 SE 9 13 1026.7 - 0.0 - - - - - - -
27/09:00am 14.7 ESE 9 14 1026.9 - 0.0 - - - - - - -
27/08:30am 14.4 SE 9 14 1026.9 - 0.0 - - - - - - -
27/08:00am 13.9 ESE 9 13 1026.7 - 0.0 - - - - - - -
27/07:30am 12.9 ESE 6 8 1026.6 - 0.0 - - - - - - -
27/07:00am 10.3 SSE 2 4 1026.4 - 0.0 - - - - - - -
27/06:30am 7.6 SSE 3 3 1026.3 - 0.0 - - - - - - -
27/06:00am 7.6 ESE 3 4 1026.0 - 0.0 - - - - - - -
27/05:30am 7.2 ESE 4 5 1025.7 - 0.0 - - - - - - -
27/05:00am 7.2 SE 4 5 1025.5 - 0.0 - - - - - - -
27/04:30am 7.6 ESE 4 5 1025.3 - 0.0 - - - - - - -
27/04:00am 7.6 ESE 4 5 1025.1 - 0.0 - - - - - - -
27/03:30am 8.2 ESE 3 5 1025.0 - 0.0 - - - - - - -
27/03:00am 8.5 ESE 4 6 1025.0 - 0.0 - - - - - - -
27/02:30am 8.8 ESE 4 6 1025.1 - 0.0 - - - - - - -
27/02:00am 9.8 ESE 6 8 1025.1 - 0.0 - - - - - - -
27/01:30am 10.1 ESE 5 7 1025.2 - 0.0 - - - - - - -
27/01:00am 11.1 ESE 7 11 1025.1 - 0.0 - - - - - - -
27/12:30am 11.5 ESE 7 10 1025.4 - 0.0 - - - - - - -
27/12:00am 12.2 SE 9 11 1025.4 - 0.0 - - - - - - -
 
Date/Time
CDT
Temp

°C
Wind Pressure Rain
since 9am
mm
Weather Cloud Vis
km
Sea
Height
m
Swell
Dir
 
Speed
knots
Gust
knots
hPa Trend Height
m
Period
s
Dir
26/11:30pm 12.7 SE 8 12 1025.5 - 0.0 - - - - - - -
26/11:00pm 12.5 SSE 6 10 1025.5 - 0.0 - - - - - - -
26/10:30pm 12.6 SSE 8 11 1025.6 - 0.0 - - - - - - -
26/10:00pm 12.4 SSE 6 9 1025.4 - 0.0 - - - - - - -
26/09:30pm 13.2 S 10 13 1025.0 - 0.0 - - - - - - -
26/09:00pm 13.6 SSE 10 15 1024.7 - 0.0 - - - - - - -
26/08:30pm 13.8 SSE 11 16 1024.6 - 0.0 - - - - - - -
26/08:00pm 14.4 SSE 12 16 1024.3 - 0.0 - - - - - - -
26/07:30pm 14.9 SSE 12 18 1024.1 - 0.0 - - - - - - -
26/07:00pm 15.6 S 14 20 1024.0 - 0.0 - - - - - - -
26/06:30pm 16.3 S 14 18 1023.8 - 0.0 - - - - - - -
26/06:00pm 17.5 S 13 17 1023.4 - 0.0 - - - - - - -
26/05:30pm 17.8 S 13 18 1023.2 - 0.0 - - - - - - -
26/05:00pm 18.0 S 11 13 1023.3 - 0.0 - - - - - - -
26/04:30pm 17.7 S 12 16 1023.5 - 0.0 - - - - - - -
26/04:00pm 18.7 SSW 11 15 1023.7 - 0.0 - - - - - - -
26/03:30pm 18.2 SSW 12 16 1023.8 - 0.0 - - - - - - -
26/03:00pm 18.4 SSW 10 14 1024.0 - 0.0 - - - - - - -
26/02:30pm 18.1 SW 10 15 1024.2 - 0.0 - - - - - - -
26/02:00pm 18.0 SW 10 14 1024.3 - 0.0 - - - - - - -
26/01:30pm 18.2 SW 9 14 1024.3 - 0.0 - - - - - - -
26/01:00pm 18.7 SSW 9 15 1024.2 - 0.0 - - - - - - -
26/12:30pm 19.0 SSW 11 15 1024.3 - 0.0 - - - - - - -
26/12:00pm 18.0 WSW 7 14 1024.5 - 0.0 - - - - - - -
26/11:30am 17.3 SSW 8 16 1024.4 - 0.0 - - - - - - -
26/11:00am 16.8 SW 6 12 1024.5 - 0.0 - - - - - - -

Other Formats:

Comma delimited format used in spreadsheet applications
http://www.bom.gov.au/fwo/IDS60701/IDS60701.95816.axf

JavaScript Object Notation format (JSON) in row-major order
http://www.bom.gov.au/fwo/IDS60701/IDS60701.95816.json